createdAt,value
2019-02-15T00:00:06.926Z,2.30
2019-02-15T00:02:08.576Z,2.30
2019-02-15T00:04:10.372Z,2.30
2019-02-15T00:06:12.023Z,2.30
2019-02-15T00:08:13.672Z,2.30
2019-02-15T00:10:15.341Z,2.30
2019-02-15T00:12:17.329Z,2.20
2019-02-15T00:14:18.993Z,2.20
2019-02-15T00:16:20.665Z,2.10
2019-02-15T00:18:30.311Z,2.10
2019-02-15T00:20:35.496Z,2.10
2019-02-15T00:22:37.153Z,2.10
2019-02-15T00:24:38.865Z,2.10
2019-02-15T00:26:40.521Z,2.10
2019-02-15T00:28:42.172Z,2.00
2019-02-15T00:30:43.837Z,1.90
2019-02-15T00:32:45.491Z,1.90
2019-02-15T00:34:47.156Z,1.90
2019-02-15T00:36:48.813Z,1.90
2019-02-15T00:38:50.461Z,1.90
2019-02-15T00:40:52.134Z,2.00
2019-02-15T00:42:53.784Z,2.00
2019-02-15T00:44:55.452Z,2.00
2019-02-15T00:47:12.493Z,2.00
2019-02-15T00:49:20.621Z,2.00
2019-02-15T00:51:59.916Z,2.00
2019-02-15T00:54:07.294Z,2.00
2019-02-15T00:56:30.592Z,1.90
2019-02-15T00:58:57.909Z,1.90
2019-02-15T01:01:15.700Z,1.70
2019-02-15T01:03:29.114Z,1.70
2019-02-15T01:05:38.201Z,1.70
2019-02-15T01:07:48.346Z,1.80
2019-02-15T01:10:02.870Z,1.80
2019-02-15T01:12:16.760Z,1.80
2019-02-15T01:14:18.400Z,1.80
2019-02-15T01:16:20.085Z,1.70
2019-02-15T01:18:21.733Z,1.70
2019-02-15T01:20:23.497Z,1.70
2019-02-15T01:22:25.153Z,1.60
2019-02-15T01:24:26.808Z,1.60
2019-02-15T01:26:34.720Z,1.60
2019-02-15T01:28:51.626Z,1.60
2019-02-15T01:31:07.985Z,1.50
2019-02-15T01:33:28.301Z,1.50
2019-02-15T01:35:39.684Z,1.40
2019-02-15T01:37:50.865Z,1.40
2019-02-15T01:40:13.208Z,1.30
2019-02-15T01:42:43.641Z,1.10
2019-02-15T01:44:49.681Z,1.00
2019-02-15T01:46:56.265Z,1.00
2019-02-15T01:48:58.009Z,1.10
2019-02-15T01:50:59.670Z,1.10
2019-02-15T01:53:01.333Z,1.20
2019-02-15T01:55:03.220Z,1.00
2019-02-15T01:57:04.892Z,1.00
2019-02-15T01:59:06.550Z,1.10
2019-02-15T02:01:08.208Z,1.20
2019-02-15T02:03:09.861Z,1.20
2019-02-15T02:05:11.511Z,1.20
2019-02-15T02:07:13.181Z,1.30
2019-02-15T02:09:15.441Z,1.20
2019-02-15T02:11:17.101Z,1.20
2019-02-15T02:13:18.749Z,1.10
2019-02-15T02:15:20.404Z,1.00
2019-02-15T02:17:22.413Z,1.00
2019-02-15T02:19:24.073Z,1.00
2019-02-15T02:21:26.064Z,1.00
2019-02-15T02:23:27.725Z,0.90
2019-02-15T02:25:29.377Z,0.90
2019-02-15T02:27:31.047Z,0.90
2019-02-15T02:29:33.289Z,0.80
2019-02-15T02:31:34.962Z,0.90
2019-02-15T02:33:36.615Z,0.80
2019-02-15T02:35:38.862Z,0.80
2019-02-15T02:37:40.534Z,0.80
2019-02-15T02:39:42.190Z,0.80
2019-02-15T02:41:44.205Z,0.80
2019-02-15T02:43:45.865Z,0.90
2019-02-15T02:45:47.532Z,0.90
2019-02-15T02:47:49.202Z,0.90
2019-02-15T02:49:50.973Z,0.90
2019-02-15T02:51:52.653Z,0.90
2019-02-15T02:53:54.310Z,0.80
2019-02-15T02:55:55.975Z,0.60
2019-02-15T02:57:57.643Z,0.60
2019-02-15T02:59:59.305Z,0.60
2019-02-15T03:02:00.993Z,0.60
2019-02-15T03:04:02.657Z,0.60
2019-02-15T03:06:04.308Z,0.60
2019-02-15T03:08:05.987Z,0.70
2019-02-15T03:10:07.646Z,0.60
2019-02-15T03:12:09.317Z,0.60
2019-02-15T03:14:11.916Z,0.60
2019-02-15T03:16:13.954Z,0.60
2019-02-15T03:18:15.625Z,0.60
2019-02-15T03:20:17.374Z,0.50
2019-02-15T03:22:19.037Z,0.50
2019-02-15T03:24:20.694Z,0.50
2019-02-15T03:26:22.361Z,0.50
2019-02-15T03:28:24.031Z,0.50
2019-02-15T03:30:26.019Z,0.40
2019-02-15T03:32:27.687Z,0.40
2019-02-15T03:34:29.351Z,0.40
2019-02-15T03:36:49.609Z,0.40
2019-02-15T03:39:10.501Z,0.40
2019-02-15T03:41:25.571Z,0.30
2019-02-15T03:43:27.237Z,0.40
2019-02-15T03:45:28.904Z,0.40
2019-02-15T03:47:30.835Z,0.40
2019-02-15T03:49:32.514Z,0.40
2019-02-15T03:51:34.172Z,0.30
2019-02-15T03:53:36.102Z,0.30
2019-02-15T03:55:37.761Z,0.30
2019-02-15T03:57:39.431Z,0.30
2019-02-15T03:59:41.098Z,0.20
2019-02-15T04:01:42.766Z,0.20
2019-02-15T04:03:44.434Z,0.30
2019-02-15T04:05:46.092Z,0.20
2019-02-15T04:07:47.757Z,0.20
2019-02-15T04:09:49.427Z,0.20
2019-02-15T04:11:51.081Z,0.10
2019-02-15T04:13:52.744Z,0.20
2019-02-15T04:15:54.425Z,0.20
2019-02-15T04:17:56.096Z,0.20
2019-02-15T04:19:57.754Z,0.20
2019-02-15T04:21:59.416Z,0.20
2019-02-15T04:24:01.392Z,0.20
2019-02-15T04:26:03.040Z,0.20
2019-02-15T04:28:04.713Z,0.20
2019-02-15T04:30:07.584Z,0.20
2019-02-15T04:32:09.254Z,0.10
2019-02-15T04:34:10.918Z,0.10
2019-02-15T04:36:12.582Z,0.00
2019-02-15T04:38:14.322Z,-0.10
2019-02-15T04:40:16.365Z,-0.10
2019-02-15T04:42:18.296Z,-0.10
2019-02-15T04:44:19.964Z,-0.20
2019-02-15T04:46:21.909Z,-0.20
2019-02-15T04:48:23.577Z,-0.20
2019-02-15T04:50:25.233Z,-0.20
2019-02-15T04:52:26.890Z,-0.10
2019-02-15T04:54:28.580Z,-0.10
2019-02-15T04:56:30.322Z,-0.10
2019-02-15T04:58:31.997Z,-0.20
2019-02-15T05:00:33.666Z,-0.20
2019-02-15T05:02:35.326Z,-0.20
2019-02-15T05:04:36.997Z,-0.20
2019-02-15T05:06:38.704Z,-0.20
2019-02-15T05:08:40.365Z,-0.20
2019-02-15T05:10:42.026Z,-0.20
2019-02-15T05:12:43.681Z,-0.20
2019-02-15T05:14:52.833Z,-0.30
2019-02-15T05:16:48.991Z,-0.20
2019-02-15T05:18:50.698Z,-0.20
2019-02-15T05:20:52.349Z,-0.20
2019-02-15T05:22:54.004Z,-0.20
2019-02-15T05:24:55.672Z,-0.30
2019-02-15T05:26:57.333Z,-0.30
2019-02-15T05:28:59.011Z,-0.30
2019-02-15T05:31:00.663Z,-0.30
2019-02-15T05:33:02.334Z,-0.30
2019-02-15T05:35:04.034Z,-0.50
2019-02-15T05:37:05.692Z,-0.50
2019-02-15T05:39:07.773Z,-0.50
2019-02-15T05:41:09.429Z,-0.50
2019-02-15T05:43:11.437Z,-0.50
2019-02-15T05:45:13.394Z,-0.50
2019-02-15T05:47:15.351Z,-0.60
2019-02-15T05:49:17.305Z,-0.60
2019-02-15T05:51:18.966Z,-0.60
2019-02-15T05:53:20.629Z,-0.60
2019-02-15T05:55:22.574Z,-0.50
2019-02-15T05:57:24.488Z,-0.50
2019-02-15T05:59:26.153Z,-0.50
2019-02-15T06:01:28.505Z,-0.50
2019-02-15T06:03:30.162Z,-0.50
2019-02-15T06:05:31.832Z,-0.50
2019-02-15T06:07:33.498Z,-0.50
2019-02-15T06:09:35.170Z,-0.50
2019-02-15T06:11:36.857Z,-0.50
2019-02-15T06:13:38.517Z,-0.50
2019-02-15T06:15:40.524Z,-0.60
2019-02-15T06:17:42.199Z,-0.60
2019-02-15T06:19:43.866Z,-0.70
2019-02-15T06:21:45.524Z,-0.70
2019-02-15T06:23:47.273Z,-0.70
2019-02-15T06:25:48.941Z,-0.80
2019-02-15T06:27:50.614Z,-0.70
2019-02-15T06:29:52.265Z,-0.70
2019-02-15T06:31:54.012Z,-0.70
2019-02-15T06:33:55.881Z,-0.70
2019-02-15T06:35:57.549Z,-0.70
2019-02-15T06:37:59.192Z,-0.70
2019-02-15T06:40:00.865Z,-0.60
2019-02-15T06:42:02.546Z,-0.60
2019-02-15T06:44:04.206Z,-0.70
2019-02-15T06:46:05.889Z,-0.70
2019-02-15T06:48:07.609Z,-0.60
2019-02-15T06:50:09.270Z,-0.60
2019-02-15T06:52:10.956Z,-0.60
2019-02-15T06:54:12.696Z,-0.60
2019-02-15T06:56:14.382Z,-0.70
2019-02-15T06:58:16.027Z,-0.60
2019-02-15T07:00:35.961Z,-0.60
2019-02-15T07:02:44.801Z,-0.60
2019-02-15T07:04:54.756Z,-0.60
2019-02-15T07:06:56.433Z,-0.50
2019-02-15T07:08:58.381Z,-0.50
2019-02-15T07:11:00.054Z,-0.50
2019-02-15T07:13:01.737Z,-0.50
2019-02-15T07:15:03.869Z,-0.50
2019-02-15T07:17:05.549Z,-0.30
2019-02-15T07:19:07.215Z,-0.30
2019-02-15T07:21:08.902Z,-0.10
2019-02-15T07:23:10.564Z,0.20
2019-02-15T07:25:12.229Z,0.50
2019-02-15T07:27:14.174Z,0.90
2019-02-15T07:29:16.146Z,1.60
2019-02-15T07:31:17.809Z,2.30
2019-02-15T07:33:19.469Z,2.90
2019-02-15T07:35:21.145Z,3.30
2019-02-15T07:37:23.140Z,3.60
2019-02-15T07:39:24.806Z,3.70
2019-02-15T07:41:26.753Z,4.40
2019-02-15T07:43:28.715Z,4.90
2019-02-15T07:45:30.372Z,5.50
2019-02-15T07:47:34.345Z,5.70
2019-02-15T07:49:36.281Z,6.10
2019-02-15T07:51:37.948Z,6.40
2019-02-15T07:53:39.597Z,6.60
2019-02-15T07:55:41.260Z,6.90
2019-02-15T07:57:43.241Z,7.10
2019-02-15T07:59:44.897Z,7.40
2019-02-15T08:01:46.560Z,7.60
2019-02-15T08:03:48.261Z,7.80
2019-02-15T08:05:50.018Z,8.00
2019-02-15T08:07:51.677Z,8.00
2019-02-15T08:09:53.325Z,8.00
2019-02-15T08:11:55.117Z,8.30
2019-02-15T08:13:57.441Z,8.50
2019-02-15T08:15:59.145Z,8.70
2019-02-15T08:18:01.084Z,8.80
2019-02-15T08:20:03.169Z,9.00
2019-02-15T08:22:05.089Z,8.60
2019-02-15T08:24:06.749Z,8.50
2019-02-15T08:26:08.436Z,8.70
2019-02-15T08:28:10.081Z,8.30
2019-02-15T08:30:12.025Z,8.00
2019-02-15T08:32:13.686Z,8.30
2019-02-15T08:34:15.336Z,7.70
2019-02-15T08:36:16.993Z,7.10
2019-02-15T08:38:18.641Z,6.90
2019-02-15T08:40:20.285Z,6.60
2019-02-15T08:42:21.936Z,6.30
2019-02-15T08:44:23.595Z,6.10
2019-02-15T08:46:25.261Z,6.00
2019-02-15T08:48:27.197Z,5.90
2019-02-15T08:50:28.857Z,5.70
2019-02-15T08:52:30.525Z,5.60
2019-02-15T08:54:32.496Z,5.50
2019-02-15T08:56:34.140Z,5.50
2019-02-15T08:58:35.897Z,5.30
2019-02-15T09:00:37.552Z,5.30
2019-02-15T09:02:39.478Z,5.30
2019-02-15T09:04:41.133Z,5.30
2019-02-15T09:06:42.788Z,5.30
2019-02-15T09:08:44.717Z,5.30
2019-02-15T09:10:46.365Z,5.40
2019-02-15T09:12:48.030Z,5.40
2019-02-15T09:14:49.684Z,5.50
2019-02-15T09:16:51.356Z,5.60
2019-02-15T09:18:53.008Z,5.70
2019-02-15T09:20:54.669Z,5.80
2019-02-15T09:22:56.333Z,6.00
2019-02-15T09:24:57.981Z,6.30
2019-02-15T09:27:06.664Z,6.70
2019-02-15T09:29:09.641Z,7.30
2019-02-15T09:31:11.302Z,8.70
2019-02-15T09:33:12.968Z,9.80
2019-02-15T09:35:14.620Z,10.80
2019-02-15T09:37:16.277Z,11.70
2019-02-15T09:39:17.929Z,12.50
2019-02-15T09:41:19.577Z,13.10
2019-02-15T09:43:21.228Z,13.70
2019-02-15T09:45:22.881Z,14.10
2019-02-15T09:47:24.537Z,14.70
2019-02-15T09:49:26.190Z,14.70
2019-02-15T09:51:27.837Z,15.30
2019-02-15T09:53:29.497Z,15.90
2019-02-15T09:55:31.428Z,16.30
2019-02-15T09:57:33.090Z,16.50
2019-02-15T09:59:34.740Z,16.80
2019-02-15T10:01:36.694Z,17.20
2019-02-15T10:03:38.349Z,17.20
2019-02-15T10:05:39.997Z,17.40
2019-02-15T10:07:41.661Z,17.40
2019-02-15T10:09:43.308Z,17.80
2019-02-15T10:11:44.958Z,18.20
2019-02-15T10:13:46.621Z,18.50
2019-02-15T10:15:48.273Z,18.90
2019-02-15T10:17:49.960Z,18.90
2019-02-15T10:19:51.808Z,19.20
2019-02-15T10:21:53.458Z,19.50
2019-02-15T10:23:55.113Z,19.50
2019-02-15T10:25:56.765Z,19.90
2019-02-15T10:27:58.421Z,20.10
2019-02-15T10:30:02.374Z,19.90
2019-02-15T10:32:03.641Z,19.50
2019-02-15T10:34:05.585Z,19.40
2019-02-15T10:36:07.533Z,20.00
2019-02-15T10:38:09.193Z,20.60
2019-02-15T10:40:10.920Z,21.00
2019-02-15T10:42:12.605Z,20.70
2019-02-15T10:44:14.270Z,21.10
2019-02-15T10:46:15.917Z,21.60
2019-02-15T10:48:17.576Z,20.40
2019-02-15T10:50:19.225Z,21.30
2019-02-15T10:52:20.910Z,21.00
2019-02-15T10:54:22.574Z,20.70
2019-02-15T10:56:24.227Z,21.30
2019-02-15T10:58:26.469Z,21.20
2019-02-15T11:00:28.461Z,20.60
2019-02-15T11:02:30.110Z,21.20
2019-02-15T11:04:31.845Z,20.30
2019-02-15T11:06:33.577Z,20.30
2019-02-15T11:08:35.238Z,19.90
2019-02-15T11:10:36.910Z,20.40
2019-02-15T11:12:38.578Z,20.50
2019-02-15T11:14:40.590Z,20.40
2019-02-15T11:16:47.329Z,20.80
2019-02-15T11:18:45.844Z,21.10
2019-02-15T11:20:47.749Z,21.10
2019-02-15T11:22:49.401Z,20.70
2019-02-15T11:24:51.057Z,20.90
2019-02-15T11:26:52.702Z,21.20
2019-02-15T11:28:54.401Z,21.50
2019-02-15T11:30:56.104Z,20.30
2019-02-15T11:32:57.789Z,21.90
2019-02-15T11:34:59.505Z,20.80
2019-02-15T11:37:01.153Z,22.10
2019-02-15T11:39:04.230Z,21.90
2019-02-15T11:41:11.202Z,21.80
2019-02-15T11:43:09.884Z,21.40
2019-02-15T11:45:11.577Z,21.90
2019-02-15T11:47:13.464Z,21.50
2019-02-15T11:49:15.393Z,21.70
2019-02-15T11:51:17.348Z,22.30
2019-02-15T11:53:19.000Z,22.20
2019-02-15T11:55:20.664Z,22.60
2019-02-15T11:57:22.613Z,22.70
2019-02-15T11:59:24.272Z,23.20
2019-02-15T12:01:25.918Z,23.10
2019-02-15T12:03:27.570Z,23.20
2019-02-15T12:05:29.231Z,22.90
2019-02-15T12:07:31.414Z,23.20
2019-02-15T12:09:33.342Z,23.20
2019-02-15T12:11:34.995Z,23.40
2019-02-15T12:13:36.906Z,23.00
2019-02-15T12:15:38.796Z,23.30
2019-02-15T12:17:40.459Z,24.20
2019-02-15T12:19:42.421Z,24.20
2019-02-15T12:21:44.070Z,23.40
2019-02-15T12:23:45.722Z,22.30
2019-02-15T12:25:47.365Z,22.70
2019-02-15T12:27:49.023Z,22.60
2019-02-15T12:29:50.680Z,23.70
2019-02-15T12:31:52.322Z,24.10
2019-02-15T12:33:53.978Z,23.60
2019-02-15T12:35:55.642Z,23.70
2019-02-15T12:37:57.554Z,23.80
2019-02-15T12:39:59.205Z,23.90
2019-02-15T12:42:00.852Z,23.00
2019-02-15T12:44:02.749Z,23.30
2019-02-15T12:46:04.423Z,23.00
2019-02-15T12:48:06.070Z,23.30
2019-02-15T12:50:09.998Z,22.60
2019-02-15T12:52:11.638Z,22.70
2019-02-15T12:54:13.286Z,22.70
2019-02-15T12:56:14.954Z,23.00
2019-02-15T12:58:16.592Z,21.90
2019-02-15T13:00:18.256Z,22.50
2019-02-15T13:02:19.893Z,22.00
2019-02-15T13:04:21.829Z,21.90
2019-02-15T13:06:28.786Z,21.40
2019-02-15T13:08:27.328Z,22.50
2019-02-15T13:10:31.377Z,22.50
2019-02-15T13:12:33.029Z,22.10
2019-02-15T13:14:34.705Z,22.70
2019-02-15T13:16:36.378Z,22.90
2019-02-15T13:18:38.033Z,22.80
2019-02-15T13:20:39.690Z,21.60
2019-02-15T13:22:41.333Z,22.40
2019-02-15T13:24:43.278Z,21.40
2019-02-15T13:26:45.124Z,22.50
2019-02-15T13:28:47.073Z,22.30
2019-02-15T13:30:48.737Z,21.40
2019-02-15T13:32:50.423Z,22.40
2019-02-15T13:34:52.132Z,22.00
2019-02-15T13:36:53.770Z,21.70
2019-02-15T13:38:55.417Z,21.80
2019-02-15T13:40:57.077Z,22.20
2019-02-15T13:42:58.724Z,22.10
2019-02-15T13:45:00.384Z,21.10
2019-02-15T13:47:02.033Z,21.80
2019-02-15T13:49:04.002Z,21.70
2019-02-15T13:51:05.665Z,21.10
2019-02-15T13:53:07.302Z,21.80
2019-02-15T13:55:08.980Z,21.20
2019-02-15T13:57:10.623Z,21.60
2019-02-15T13:59:12.269Z,21.40
2019-02-15T14:01:14.209Z,22.20
2019-02-15T14:03:15.859Z,21.20
2019-02-15T14:05:17.512Z,22.10
2019-02-15T14:07:19.434Z,22.60
2019-02-15T14:09:21.104Z,21.50
2019-02-15T14:11:22.793Z,22.10
2019-02-15T14:13:24.436Z,22.30
2019-02-15T14:15:26.093Z,21.90
2019-02-15T14:17:27.750Z,22.60
2019-02-15T14:19:29.398Z,22.20
2019-02-15T14:21:31.053Z,21.40
2019-02-15T14:23:32.706Z,22.20
2019-02-15T14:25:34.370Z,21.60
2019-02-15T14:27:36.017Z,21.90
2019-02-15T14:29:37.670Z,20.50
2019-02-15T14:31:39.336Z,21.50
2019-02-15T14:33:40.999Z,21.30
2019-02-15T14:35:43.008Z,21.30
2019-02-15T14:37:44.648Z,21.60
2019-02-15T14:39:46.296Z,21.60
2019-02-15T14:41:48.124Z,21.40
2019-02-15T14:43:49.800Z,21.40
2019-02-15T14:45:51.461Z,21.30
2019-02-15T14:47:55.240Z,20.90
2019-02-15T14:49:56.653Z,21.00
2019-02-15T14:51:58.305Z,21.20
2019-02-15T14:53:59.949Z,21.30
2019-02-15T14:56:01.612Z,20.50
2019-02-15T14:58:03.260Z,20.90
2019-02-15T15:00:07.057Z,21.10
2019-02-15T15:02:08.818Z,21.10
2019-02-15T15:04:10.464Z,20.60
2019-02-15T15:06:12.114Z,20.80
2019-02-15T15:08:13.774Z,21.10
2019-02-15T15:10:15.509Z,20.50
2019-02-15T15:12:17.170Z,20.20
2019-02-15T15:14:19.105Z,20.40
2019-02-15T15:16:20.772Z,20.80
2019-02-15T15:18:22.426Z,20.20
2019-02-15T15:20:24.069Z,19.50
2019-02-15T15:22:25.728Z,20.10
2019-02-15T15:24:28.494Z,19.80
2019-02-15T15:26:30.353Z,19.70
2019-02-15T15:28:34.125Z,19.70
2019-02-15T15:30:35.776Z,19.80
2019-02-15T15:32:37.445Z,19.70
2019-02-15T15:34:39.099Z,19.30
2019-02-15T15:36:40.764Z,19.50
2019-02-15T15:38:42.413Z,19.50
2019-02-15T15:40:44.070Z,18.90
2019-02-15T15:42:45.730Z,18.70
2019-02-15T15:44:47.380Z,18.60
2019-02-15T15:46:49.061Z,18.10
2019-02-15T15:48:50.717Z,18.10
2019-02-15T15:50:52.362Z,18.10
2019-02-15T15:52:54.022Z,17.90
2019-02-15T15:54:55.676Z,17.70
2019-02-15T15:56:57.590Z,17.10
2019-02-15T15:58:59.254Z,16.70
2019-02-15T16:01:00.917Z,16.10
2019-02-15T16:03:02.796Z,16.10
2019-02-15T16:05:04.573Z,15.70
2019-02-15T16:07:06.252Z,15.50
2019-02-15T16:09:07.906Z,15.20
2019-02-15T16:11:09.553Z,15.10
2019-02-15T16:13:11.221Z,14.90
2019-02-15T16:15:13.179Z,14.80
2019-02-15T16:17:15.129Z,14.50
2019-02-15T16:19:16.910Z,14.50
2019-02-15T16:21:18.600Z,14.30
2019-02-15T16:23:20.260Z,14.20
2019-02-15T16:25:21.930Z,14.20
2019-02-15T16:27:23.593Z,14.00
2019-02-15T16:29:25.246Z,13.80
2019-02-15T16:31:26.971Z,13.60
2019-02-15T16:33:28.623Z,13.50
2019-02-15T16:35:30.275Z,13.30
2019-02-15T16:37:32.037Z,13.20
2019-02-15T16:39:33.697Z,13.10
2019-02-15T16:41:35.358Z,13.00
2019-02-15T16:43:36.998Z,13.00
2019-02-15T16:45:38.655Z,12.90
2019-02-15T16:47:40.316Z,12.80
2019-02-15T16:49:41.979Z,12.70
2019-02-15T16:51:43.643Z,12.60
2019-02-15T16:53:45.288Z,12.50
2019-02-15T16:55:46.937Z,12.50
2019-02-15T16:57:48.597Z,12.30
2019-02-15T16:59:50.533Z,12.20
2019-02-15T17:01:52.192Z,12.20
2019-02-15T17:03:53.844Z,12.10
2019-02-15T17:05:55.752Z,12.00
2019-02-15T17:07:57.424Z,12.00
2019-02-15T17:10:08.571Z,11.90
2019-02-15T17:12:10.228Z,11.80
2019-02-15T17:14:11.878Z,11.80
2019-02-15T17:16:13.547Z,11.70
2019-02-15T17:18:15.207Z,11.60
2019-02-15T17:20:16.857Z,11.50
2019-02-15T17:22:18.513Z,11.40
2019-02-15T17:24:20.499Z,11.30
2019-02-15T17:26:22.149Z,11.30
2019-02-15T17:28:23.808Z,11.30
2019-02-15T17:30:25.452Z,11.20
2019-02-15T17:32:27.108Z,11.20
2019-02-15T17:34:28.762Z,11.20
2019-02-15T17:36:30.404Z,11.10
2019-02-15T17:38:32.070Z,11.10
2019-02-15T17:40:33.721Z,11.10
2019-02-15T17:42:35.386Z,11.10
2019-02-15T17:44:37.028Z,11.00
2019-02-15T17:46:38.689Z,11.10
2019-02-15T17:48:40.335Z,11.10
2019-02-15T17:50:42.025Z,11.10
2019-02-15T17:52:43.691Z,11.10
2019-02-15T17:54:45.363Z,11.00
2019-02-15T17:56:47.018Z,11.00
2019-02-15T17:58:48.670Z,11.00
2019-02-15T18:00:50.431Z,10.90
2019-02-15T18:02:52.106Z,10.80
2019-02-15T18:04:53.841Z,10.80
2019-02-15T18:06:55.493Z,10.60
2019-02-15T18:08:57.156Z,10.60
2019-02-15T18:10:58.809Z,10.60
2019-02-15T18:13:00.473Z,10.50
2019-02-15T18:15:02.146Z,10.50
2019-02-15T18:17:03.804Z,10.30
2019-02-15T18:19:10.001Z,10.30
2019-02-15T18:21:09.016Z,10.20
2019-02-15T18:23:10.673Z,10.00
2019-02-15T18:25:12.417Z,10.00
2019-02-15T18:27:14.064Z,9.90
2019-02-15T18:29:15.781Z,9.70
2019-02-15T18:31:17.766Z,9.70
2019-02-15T18:33:19.424Z,9.60
2019-02-15T18:35:21.093Z,9.60
2019-02-15T18:37:22.746Z,9.50
2019-02-15T18:39:24.397Z,9.30
2019-02-15T18:41:26.450Z,9.30
2019-02-15T18:43:28.164Z,9.30
2019-02-15T18:45:29.815Z,9.20
2019-02-15T18:47:31.452Z,9.10
2019-02-15T18:49:33.108Z,9.10
2019-02-15T18:51:34.761Z,9.10
2019-02-15T18:53:36.430Z,9.10
2019-02-15T18:55:38.101Z,9.10
2019-02-15T18:57:39.757Z,9.10
2019-02-15T18:59:41.446Z,9.00
2019-02-15T19:01:43.366Z,9.10
2019-02-15T19:03:45.049Z,8.90
2019-02-15T19:05:46.760Z,9.00
2019-02-15T19:07:49.547Z,8.70
2019-02-15T19:09:51.220Z,8.70
2019-02-15T19:11:52.866Z,8.70
2019-02-15T19:13:54.813Z,8.70
2019-02-15T19:15:57.485Z,8.60
2019-02-15T19:17:59.133Z,8.60
2019-02-15T19:20:00.789Z,8.60
2019-02-15T19:22:02.444Z,8.60
2019-02-15T19:24:04.100Z,8.60
2019-02-15T19:26:05.777Z,8.50
2019-02-15T19:28:07.522Z,8.30
2019-02-15T19:30:11.733Z,8.30
2019-02-15T19:32:13.386Z,8.30
2019-02-15T19:34:15.043Z,8.20
2019-02-15T19:36:16.691Z,8.20
2019-02-15T19:38:18.346Z,8.20
2019-02-15T19:40:20.014Z,8.30
2019-02-15T19:42:21.892Z,8.30
2019-02-15T19:44:23.604Z,8.30
2019-02-15T19:46:25.265Z,8.40
2019-02-15T19:48:26.916Z,8.40
2019-02-15T19:50:28.564Z,8.30
2019-02-15T19:52:30.232Z,8.00
2019-02-15T19:54:32.149Z,8.10
2019-02-15T19:56:33.794Z,8.20
2019-02-15T19:58:35.442Z,8.20
2019-02-15T20:00:37.140Z,8.30
2019-02-15T20:02:38.896Z,8.40
2019-02-15T20:04:40.738Z,8.40
2019-02-15T20:06:42.380Z,8.40
2019-02-15T20:08:44.125Z,8.50
2019-02-15T20:10:45.769Z,8.50
2019-02-15T20:12:47.429Z,8.50
2019-02-15T20:14:49.089Z,8.50
2019-02-15T20:16:50.747Z,8.60
2019-02-15T20:18:52.785Z,8.50
2019-02-15T20:20:54.445Z,8.50
2019-02-15T20:22:56.218Z,8.40
2019-02-15T20:24:58.793Z,8.30
2019-02-15T20:27:00.820Z,8.30
2019-02-15T20:29:02.469Z,8.20
2019-02-15T20:31:04.165Z,8.10
2019-02-15T20:33:05.805Z,8.00
2019-02-15T20:35:08.068Z,7.80
2019-02-15T20:37:09.716Z,7.60
2019-02-15T20:39:11.367Z,7.50
2019-02-15T20:41:13.309Z,7.50
2019-02-15T20:43:14.952Z,7.30
2019-02-15T20:45:17.825Z,7.30
2019-02-15T20:47:19.802Z,7.20
2019-02-15T20:49:21.456Z,7.20
2019-02-15T20:51:23.104Z,7.20
2019-02-15T20:53:24.813Z,7.40
2019-02-15T20:55:26.643Z,7.50
2019-02-15T20:57:28.310Z,7.50
2019-02-15T20:59:30.246Z,7.30
2019-02-15T21:01:31.896Z,7.30
2019-02-15T21:03:33.548Z,7.40
2019-02-15T21:05:35.260Z,7.30
2019-02-15T21:07:36.948Z,7.30
2019-02-15T21:09:38.604Z,7.60
2019-02-15T21:11:40.260Z,7.80
2019-02-15T21:13:41.913Z,7.60
2019-02-15T21:15:43.556Z,7.50
2019-02-15T21:17:45.533Z,7.40
2019-02-15T21:19:47.258Z,7.60
2019-02-15T21:21:48.913Z,7.70
2019-02-15T21:23:50.557Z,7.90
2019-02-15T21:25:52.205Z,8.10
2019-02-15T21:27:53.845Z,8.20
2019-02-15T21:29:55.492Z,8.10
2019-02-15T21:31:57.148Z,8.10
2019-02-15T21:33:58.793Z,8.10
2019-02-15T21:36:00.452Z,8.10
2019-02-15T21:38:02.098Z,8.10
2019-02-15T21:40:04.506Z,8.10
2019-02-15T21:42:06.440Z,8.00
2019-02-15T21:44:08.094Z,8.00
2019-02-15T21:46:09.759Z,7.90
2019-02-15T21:48:11.411Z,7.90
2019-02-15T21:50:17.276Z,7.80
2019-02-15T21:52:16.883Z,7.60
2019-02-15T21:54:18.774Z,7.50
2019-02-15T21:56:20.440Z,7.40
2019-02-15T21:58:22.104Z,7.40
2019-02-15T22:00:23.882Z,7.30
2019-02-15T22:02:25.540Z,7.30
2019-02-15T22:04:27.197Z,7.10
2019-02-15T22:06:28.853Z,7.00
2019-02-15T22:08:30.501Z,6.90
2019-02-15T22:10:32.141Z,6.70
2019-02-15T22:12:33.803Z,6.60
2019-02-15T22:14:35.454Z,6.70
2019-02-15T22:16:37.112Z,6.70
2019-02-15T22:18:38.756Z,6.70
2019-02-15T22:20:40.401Z,6.90
2019-02-15T22:22:42.389Z,6.90
2019-02-15T22:24:44.036Z,6.90
2019-02-15T22:26:45.695Z,6.90
2019-02-15T22:28:47.344Z,7.10
2019-02-15T22:30:49.009Z,7.20
2019-02-15T22:32:50.665Z,7.90
2019-02-15T22:34:52.317Z,7.80
2019-02-15T22:36:53.981Z,7.80
2019-02-15T22:38:55.628Z,7.90
2019-02-15T22:41:16.965Z,8.00
2019-02-15T22:43:20.497Z,8.50
2019-02-15T22:45:22.150Z,8.40
2019-02-15T22:47:23.801Z,8.50
2019-02-15T22:49:25.465Z,8.80
2019-02-15T22:51:27.120Z,8.70
2019-02-15T22:53:29.029Z,9.00
2019-02-15T22:55:30.684Z,9.00
2019-02-15T22:57:32.347Z,8.90
2019-02-15T22:59:33.994Z,8.90
2019-02-15T23:01:35.956Z,9.00
2019-02-15T23:03:37.873Z,9.20
2019-02-15T23:05:39.520Z,9.30
2019-02-15T23:07:41.180Z,9.30
2019-02-15T23:09:42.829Z,9.30
2019-02-15T23:11:44.725Z,9.20
2019-02-15T23:13:46.380Z,9.20
2019-02-15T23:15:48.115Z,9.20
2019-02-15T23:17:49.796Z,9.00
2019-02-15T23:19:51.450Z,8.90
2019-02-15T23:21:53.125Z,8.80
2019-02-15T23:23:54.773Z,8.90
2019-02-15T23:25:56.413Z,8.90
2019-02-15T23:27:58.070Z,8.90
2019-02-15T23:29:59.717Z,9.00
2019-02-15T23:32:01.360Z,9.00
2019-02-15T23:34:03.109Z,9.00
2019-02-15T23:36:04.756Z,9.20
2019-02-15T23:38:06.421Z,9.20
2019-02-15T23:40:08.069Z,9.00
2019-02-15T23:42:09.733Z,8.90
2019-02-15T23:44:11.385Z,8.80
2019-02-15T23:46:13.029Z,8.90
2019-02-15T23:48:14.687Z,8.80
2019-02-15T23:50:16.321Z,8.80
2019-02-15T23:52:17.973Z,8.80
2019-02-15T23:54:19.616Z,8.80
2019-02-15T23:56:21.266Z,8.80
2019-02-15T23:58:22.921Z,8.90
